Escape — WCY2956 — position and weather

sailwx.info

Track history (hours):
 
Tides and Currents Weather Stations Pressure Air Temp Water Temp Dewpoint Dewpoint Depression Visibility Wind Speed Wind Dir Waves Ship Positions

Escape

Owner: PIGOTT, CHARLES M, BELLEVUE, WA. More information available from US FCC via Universal Licensing System and Coast Guard Vessel Documentation Center.

Last reported at 2018-Jan-11 11:56 UTC. Time now 2018-Feb-20 02:06 UTC.
Position N 47°37' W 122°13'.
Warning: this ship's position is 39 days out of date.

Length 38 m; draft 3 m.

Type: Pleasure craft. MMSI: 367125320.

Date/timePositionNaut miles runAvg speedWind from/ knotsBaromVisibWave heightAir tempDewpointWater temp
2018-Jan-11 11:56N 47°37' W 122°13'0 0.0
2018-Jan-11 11:29N 47°37' W 122°13'0 0.0
2018-Jan-11 10:59N 47°37' W 122°13'0 0.0
2018-Jan-11 10:29N 47°37' W 122°13'0 0.0
2018-Jan-11 09:59N 47°37' W 122°13'0 0.0
2018-Jan-11 09:29N 47°37' W 122°13'0 0.0
2018-Jan-11 08:59N 47°37' W 122°13'0 0.0
2018-Jan-11 08:29N 47°37' W 122°13'0 0.0
2018-Jan-11 07:59N 47°37' W 122°13'0 0.0
2018-Jan-10 23:47N 47°37' W 122°13'0 0.0
2018-Jan-10 23:29N 47°37' W 122°13'0 0.0
2018-Jan-10 21:20N 47°37' W 122°13'0 0.0
2018-Jan-10 20:59N 47°37' W 122°13'0 0.0
2018-Jan-10 20:29N 47°37' W 122°13'0 0.0
2018-Jan-10 19:53N 47°37' W 122°13'0 0.0
2018-Jan-10 19:29N 47°37' W 122°13'0 0.0
2018-Jan-10 18:59N 47°37' W 122°13'0 0.0
2018-Jan-10 18:29N 47°37' W 122°13'0 0.0
2018-Jan-10 17:59N 47°37' W 122°13'0 0.0
2018-Jan-10 16:47N 47°37' W 122°13'0 0.0
2018-Jan-10 16:23N 47°37' W 122°13'0 0.0
2018-Jan-10 15:59N 47°37' W 122°13'0 0.0
2018-Jan-10 14:26N 47°37' W 122°13'0 0.0
2018-Jan-10 13:59N 47°37' W 122°13'0 0.0
2018-Jan-10 13:29N 47°37' W 122°13'0 0.0
2018-Jan-10 12:59N 47°37' W 122°13'0 0.0
2018-Jan-10 12:29N 47°37' W 122°13'0 0.0
2018-Jan-10 11:59N 47°37' W 122°13'0 0.0
2018-Jan-10 11:29N 47°37' W 122°13'0 0.0
2018-Jan-10 10:59N 47°37' W 122°13'0 0.0
2018-Jan-10 10:29N 47°37' W 122°13'0 0.0
2018-Jan-10 09:59N 47°37' W 122°13'0 0.0
2018-Jan-10 09:29N 47°37' W 122°13'0 0.0
2018-Jan-10 08:59N 47°37' W 122°13'0 0.0
2018-Jan-10 08:29N 47°37' W 122°13'0 0.0
2018-Jan-10 07:59N 47°37' W 122°13'0 0.0
2018-Jan-10 07:29N 47°37' W 122°13'0 0.0
2018-Jan-10 06:53N 47°37' W 122°13'0 0.0
2018-Jan-10 06:23N 47°37' W 122°13'0 0.0
2018-Jan-09 23:35N 47°37' W 122°13'0 0.1
2018-Jan-09 23:29N 47°37' W 122°13'0 0.0
2018-Jan-09 22:59N 47°37' W 122°13'0 0.0
2018-Jan-09 21:44N 47°37' W 122°13'1 6.1
2018-Jan-09 21:30N 47°37' W 122°15'3 6.3
2018-Jan-09 21:00N 47°39' W 122°18'2 3.2
2018-Jan-09 20:30N 47°39' W 122°21'2 4.8
2018-Jan-09 20:00N 47°40' W 122°24'0 0.8
2018-Jan-09 19:30N 47°40' W 122°24'2 3.4
2018-Jan-09 19:00N 47°40' W 122°27'611.1
2018-Jan-09 18:30N 47°35' W 122°22'3 5.9
2018-Jan-09 18:00N 47°32' W 122°20'2 3.2
2018-Jan-09 17:30N 47°31' W 122°18'0 0.0
2018-Jan-09 17:00N 47°31' W 122°18'0 0.0
2018-Jan-09 16:30N 47°31' W 122°18'0 0.3
2018-Jan-09 16:00N 47°31' W 122°18'0 0.0
2018-Jan-09 14:20N 47°31' W 122°18'0 0.0
2018-Jan-09 13:32N 47°31' W 122°18'0 0.0
2018-Jan-09 13:26N 47°31' W 122°18'0 0.0
2018-Jan-09 12:56N 47°31' W 122°18'0 0.0
2018-Jan-09 12:26N 47°31' W 122°18'0 0.0
2018-Jan-09 11:56N 47°31' W 122°18'0 0.0
2018-Jan-09 11:20N 47°31' W 122°18'0 0.0
2018-Jan-09 10:50N 47°31' W 122°18'0 0.0
2018-Jan-09 10:20N 47°31' W 122°18'0 0.0
2018-Jan-09 09:56N 47°31' W 122°18'0 0.0
2018-Jan-09 09:26N 47°31' W 122°18'0 0.0
2018-Jan-09 08:44N 47°31' W 122°18'0 0.0
2018-Jan-09 08:26N 47°31' W 122°18'0 0.0
2018-Jan-09 07:56N 47°31' W 122°18'  
Track history (hours):
 
Tides and Currents Weather Stations Pressure Air Temp Water Temp Dewpoint Dewpoint Depression Visibility Wind Speed Wind Dir Waves Ship Positions

Escape

Owner: PIGOTT, CHARLES M, BELLEVUE, WA. More information available from US FCC via Universal Licensing System and Coast Guard Vessel Documentation Center.

Last reported at 2018-Jan-11 11:56 UTC. Time now 2018-Feb-20 02:06 UTC.
Position N 47°37' W 122°13'.
Warning: this ship's position is 39 days out of date.

Length 38 m; draft 3 m.

Type: Pleasure craft. MMSI: 367125320.

Date/timePositionNaut miles runAvg speedWind from/ knotsBaromVisibWave heightAir tempDewpointWater temp
2018-Jan-11 11:56N 47°37' W 122°13'0 0.0
2018-Jan-11 11:29N 47°37' W 122°13'0 0.0
2018-Jan-11 10:59N 47°37' W 122°13'0 0.0
2018-Jan-11 10:29N 47°37' W 122°13'0 0.0
2018-Jan-11 09:59N 47°37' W 122°13'0 0.0
2018-Jan-11 09:29N 47°37' W 122°13'0 0.0
2018-Jan-11 08:59N 47°37' W 122°13'0 0.0
2018-Jan-11 08:29N 47°37' W 122°13'0 0.0
2018-Jan-11 07:59N 47°37' W 122°13'0 0.0
2018-Jan-10 23:47N 47°37' W 122°13'0 0.0
2018-Jan-10 23:29N 47°37' W 122°13'0 0.0
2018-Jan-10 21:20N 47°37' W 122°13'0 0.0
2018-Jan-10 20:59N 47°37' W 122°13'0 0.0
2018-Jan-10 20:29N 47°37' W 122°13'0 0.0
2018-Jan-10 19:53N 47°37' W 122°13'0 0.0
2018-Jan-10 19:29N 47°37' W 122°13'0 0.0
2018-Jan-10 18:59N 47°37' W 122°13'0 0.0
2018-Jan-10 18:29N 47°37' W 122°13'0 0.0
2018-Jan-10 17:59N 47°37' W 122°13'0 0.0
2018-Jan-10 16:47N 47°37' W 122°13'0 0.0
2018-Jan-10 16:23N 47°37' W 122°13'0 0.0
2018-Jan-10 15:59N 47°37' W 122°13'0 0.0
2018-Jan-10 14:26N 47°37' W 122°13'0 0.0
2018-Jan-10 13:59N 47°37' W 122°13'0 0.0
2018-Jan-10 13:29N 47°37' W 122°13'0 0.0
2018-Jan-10 12:59N 47°37' W 122°13'0 0.0
2018-Jan-10 12:29N 47°37' W 122°13'0 0.0
2018-Jan-10 11:59N 47°37' W 122°13'0 0.0
2018-Jan-10 11:29N 47°37' W 122°13'0 0.0
2018-Jan-10 10:59N 47°37' W 122°13'0 0.0
2018-Jan-10 10:29N 47°37' W 122°13'0 0.0
2018-Jan-10 09:59N 47°37' W 122°13'0 0.0
2018-Jan-10 09:29N 47°37' W 122°13'0 0.0
2018-Jan-10 08:59N 47°37' W 122°13'0 0.0
2018-Jan-10 08:29N 47°37' W 122°13'0 0.0
2018-Jan-10 07:59N 47°37' W 122°13'0 0.0
2018-Jan-10 07:29N 47°37' W 122°13'0 0.0
2018-Jan-10 06:53N 47°37' W 122°13'0 0.0
2018-Jan-10 06:23N 47°37' W 122°13'0 0.0
2018-Jan-09 23:35N 47°37' W 122°13'0 0.1
2018-Jan-09 23:29N 47°37' W 122°13'0 0.0
2018-Jan-09 22:59N 47°37' W 122°13'0 0.0
2018-Jan-09 21:44N 47°37' W 122°13'1 6.1
2018-Jan-09 21:30N 47°37' W 122°15'3 6.3
2018-Jan-09 21:00N 47°39' W 122°18'2 3.2
2018-Jan-09 20:30N 47°39' W 122°21'2 4.8
2018-Jan-09 20:00N 47°40' W 122°24'0 0.8
2018-Jan-09 19:30N 47°40' W 122°24'2 3.4
2018-Jan-09 19:00N 47°40' W 122°27'611.1
2018-Jan-09 18:30N 47°35' W 122°22'3 5.9
2018-Jan-09 18:00N 47°32' W 122°20'2 3.2
2018-Jan-09 17:30N 47°31' W 122°18'0 0.0
2018-Jan-09 17:00N 47°31' W 122°18'0 0.0
2018-Jan-09 16:30N 47°31' W 122°18'0 0.3
2018-Jan-09 16:00N 47°31' W 122°18'0 0.0
2018-Jan-09 14:20N 47°31' W 122°18'0 0.0
2018-Jan-09 13:32N 47°31' W 122°18'0 0.0
2018-Jan-09 13:26N 47°31' W 122°18'0 0.0
2018-Jan-09 12:56N 47°31' W 122°18'0 0.0
2018-Jan-09 12:26N 47°31' W 122°18'0 0.0
2018-Jan-09 11:56N 47°31' W 122°18'0 0.0
2018-Jan-09 11:20N 47°31' W 122°18'0 0.0
2018-Jan-09 10:50N 47°31' W 122°18'0 0.0
2018-Jan-09 10:20N 47°31' W 122°18'0 0.0
2018-Jan-09 09:56N 47°31' W 122°18'0 0.0
2018-Jan-09 09:26N 47°31' W 122°18'0 0.0
2018-Jan-09 08:44N 47°31' W 122°18'0 0.0
2018-Jan-09 08:26N 47°31' W 122°18'0 0.0
2018-Jan-09 07:56N 47°31' W 122°18'  

Dump ship's entire track history